createdAt,value
2022-08-17T00:09:26.342Z,17.00
2022-08-17T00:12:34.715Z,17.00
2022-08-17T00:14:46.534Z,18.00
2022-08-17T01:01:12.832Z,16.10
2022-08-17T01:06:28.763Z,16.60
2022-08-17T01:09:00.643Z,16.00
2022-08-17T01:11:36.255Z,15.90
2022-08-17T01:14:07.801Z,15.30
2022-08-17T01:19:11.967Z,15.20
2022-08-17T01:21:49.538Z,15.70
2022-08-17T01:26:52.573Z,15.60
2022-08-17T01:29:30.884Z,15.30
2022-08-17T01:32:05.017Z,15.80
2022-08-17T01:34:43.809Z,15.90
2022-08-17T01:39:56.693Z,15.70
2022-08-17T01:42:32.194Z,15.70
2022-08-17T01:45:08.009Z,15.60
2022-08-17T01:47:38.310Z,15.90
2022-08-17T01:50:11.433Z,15.60
2022-08-17T01:52:42.449Z,15.40
2022-08-17T01:55:18.441Z,15.60
2022-08-17T01:57:48.538Z,15.20
2022-08-17T02:05:19.863Z,15.80
2022-08-17T02:10:34.359Z,15.10
2022-08-17T02:13:05.885Z,15.50
2022-08-17T02:15:36.314Z,15.20
2022-08-17T02:18:07.521Z,14.80
2022-08-17T02:20:42.385Z,15.60
2022-08-17T02:23:14.813Z,15.00
2022-08-17T02:25:50.468Z,14.90
2022-08-17T02:28:21.426Z,14.90
2022-08-17T02:31:02.572Z,14.60
2022-08-17T02:33:42.839Z,15.00
2022-08-17T02:36:15.621Z,15.00
2022-08-17T02:38:47.168Z,14.60
2022-08-17T02:41:19.775Z,15.20
2022-08-17T02:46:20.061Z,15.10
2022-08-17T02:51:20.367Z,14.40
2022-08-17T02:56:23.260Z,14.30
2022-08-17T03:01:23.677Z,15.10
2022-08-17T03:03:53.721Z,15.10
2022-08-17T03:06:23.676Z,14.80
2022-08-17T03:11:27.204Z,14.50
2022-08-17T03:13:58.524Z,14.80
2022-08-17T03:16:28.504Z,14.70
2022-08-17T03:18:58.460Z,14.30
2022-08-17T03:23:58.587Z,14.60
2022-08-17T03:26:32.345Z,15.30
2022-08-17T03:29:02.301Z,14.40
2022-08-17T03:31:32.421Z,14.80
2022-08-17T03:36:36.071Z,15.20
2022-08-17T03:41:39.482Z,14.80
2022-08-17T03:44:09.421Z,14.90
2022-08-17T03:46:51.859Z,14.80
2022-08-17T03:52:16.952Z,14.90
2022-08-17T03:55:00.431Z,14.70
2022-08-17T03:57:33.624Z,15.20
2022-08-17T04:00:04.556Z,14.80
2022-08-17T04:02:42.091Z,14.60
2022-08-17T04:05:12.251Z,15.10
2022-08-17T04:07:42.169Z,15.10
2022-08-17T04:10:12.457Z,15.10
2022-08-17T04:12:52.941Z,15.10
2022-08-17T04:15:23.793Z,15.30
2022-08-17T04:20:25.410Z,15.50
2022-08-17T04:23:02.107Z,15.90
2022-08-17T04:25:33.795Z,15.30
2022-08-17T04:28:15.599Z,15.40
2022-08-17T04:30:47.690Z,15.50
2022-08-17T04:33:19.730Z,15.70
2022-08-17T04:35:51.994Z,15.30
2022-08-17T04:38:24.451Z,15.50
2022-08-17T04:41:07.971Z,15.50
2022-08-17T04:43:43.124Z,15.80
2022-08-17T04:46:20.046Z,15.30
2022-08-17T04:48:51.274Z,15.90
2022-08-17T04:51:25.896Z,15.80
2022-08-17T04:53:59.065Z,15.30
2022-08-17T04:56:31.246Z,15.30
2022-08-17T04:59:07.016Z,15.80
2022-08-17T05:01:40.019Z,15.60
2022-08-17T05:04:33.146Z,15.90
2022-08-17T05:09:32.599Z,15.20
2022-08-17T05:12:03.650Z,15.30
2022-08-17T05:14:36.165Z,15.50
2022-08-17T05:17:07.354Z,15.90
2022-08-17T05:27:24.010Z,16.20
2022-08-17T05:29:59.630Z,15.70
2022-08-17T05:32:37.951Z,16.70
2022-08-17T05:35:11.201Z,16.40
2022-08-17T05:40:12.609Z,16.70
2022-08-17T05:42:42.907Z,16.80
2022-08-17T05:45:16.501Z,16.60
2022-08-17T05:48:02.337Z,17.10
2022-08-17T05:50:45.061Z,17.50
2022-08-17T05:53:23.098Z,17.20
2022-08-17T05:56:02.410Z,17.40
2022-08-17T05:58:56.313Z,17.90
2022-08-17T06:01:37.867Z,17.60
2022-08-17T06:04:23.315Z,17.80
2022-08-17T06:07:01.106Z,18.40
2022-08-17T06:09:40.381Z,18.30
2022-08-17T06:12:30.161Z,18.50
2022-08-17T06:15:12.795Z,18.70
2022-08-17T06:17:45.909Z,16.50
2022-08-17T06:20:18.492Z,19.20
2022-08-17T06:22:52.375Z,19.50
2022-08-17T06:25:32.716Z,19.50
2022-08-17T06:28:07.344Z,19.80
2022-08-17T06:30:59.352Z,20.10
2022-08-17T06:33:37.936Z,20.10
2022-08-17T06:36:19.978Z,20.20
2022-08-17T06:39:01.587Z,20.50
2022-08-17T06:41:42.991Z,20.40
2022-08-17T06:44:44.749Z,20.90
2022-08-17T06:47:15.716Z,20.90
2022-08-17T06:50:11.693Z,21.10
2022-08-17T06:52:49.862Z,21.10
2022-08-17T06:55:26.315Z,21.40
2022-08-17T06:58:05.831Z,21.70
2022-08-17T07:00:49.223Z,21.60
2022-08-17T07:03:29.039Z,21.90
2022-08-17T07:06:09.689Z,22.00
2022-08-17T07:08:52.154Z,22.10
2022-08-17T07:11:26.333Z,22.10
2022-08-17T07:14:05.244Z,22.40
2022-08-17T07:16:41.248Z,22.40
2022-08-17T07:19:12.577Z,22.50
2022-08-17T07:21:56.524Z,22.60
2022-08-17T07:24:35.694Z,22.70
2022-08-17T07:27:12.749Z,23.20
2022-08-17T07:29:47.802Z,23.10
2022-08-17T07:32:21.113Z,23.20
2022-08-17T07:35:11.723Z,23.90
2022-08-17T07:37:53.168Z,23.30
2022-08-17T07:40:32.060Z,23.40
2022-08-17T07:43:22.092Z,23.70
2022-08-17T07:46:20.501Z,24.00
2022-08-17T07:48:52.625Z,23.90
2022-08-17T07:51:29.216Z,24.40
2022-08-17T07:54:14.597Z,24.50
2022-08-17T07:56:48.595Z,24.60
2022-08-17T07:59:23.686Z,24.80
2022-08-17T08:04:59.813Z,25.10
2022-08-17T08:15:19.016Z,25.60
2022-08-17T08:20:51.030Z,25.90
2022-08-17T08:42:03.478Z,27.50
2022-08-17T08:50:37.524Z,28.50
2022-08-17T08:53:21.374Z,28.80
2022-08-17T08:55:57.644Z,28.80
2022-08-17T08:58:41.992Z,29.20
2022-08-17T09:01:21.136Z,29.40
2022-08-17T09:09:39.595Z,30.50
2022-08-17T09:14:54.517Z,30.90
2022-08-17T09:22:37.220Z,30.90
2022-08-17T09:25:12.233Z,30.80
2022-08-17T09:32:58.914Z,31.90
2022-08-17T09:35:37.223Z,32.30
2022-08-17T09:38:20.109Z,32.50
2022-08-17T09:43:26.501Z,32.50
2022-08-17T09:53:39.886Z,32.00
2022-08-17T09:56:24.034Z,32.60
2022-08-17T09:59:27.470Z,33.10
2022-08-17T10:04:56.483Z,33.80
2022-08-17T10:07:35.765Z,34.10
2022-08-17T10:10:14.566Z,34.40
2022-08-17T10:15:34.641Z,34.80
2022-08-17T10:18:22.768Z,34.50
2022-08-17T10:21:18.509Z,34.80
2022-08-17T10:29:29.192Z,34.60
2022-08-17T10:37:43.618Z,35.00
2022-08-17T10:40:26.496Z,34.70
2022-08-17T10:43:01.958Z,35.00
2022-08-17T10:48:29.628Z,34.80
2022-08-17T10:53:55.377Z,34.00
2022-08-17T10:56:48.059Z,33.60
2022-08-17T10:59:53.060Z,33.50
2022-08-17T11:31:38.695Z,32.40
2022-08-17T11:47:35.269Z,33.40
2022-08-17T12:30:39.117Z,34.50
2022-08-17T12:38:35.001Z,35.60
2022-08-17T12:46:36.199Z,34.10
2022-08-17T12:54:29.203Z,35.80
2022-08-17T12:59:33.183Z,36.40
2022-08-17T13:04:37.583Z,36.80
2022-08-17T13:19:54.005Z,35.80
2022-08-17T13:22:26.485Z,35.30
2022-08-17T13:24:58.180Z,34.60
2022-08-17T13:27:30.111Z,34.30
2022-08-17T13:30:02.769Z,34.00
2022-08-17T13:32:39.928Z,33.70
2022-08-17T13:51:25.925Z,31.70
2022-08-17T13:54:17.915Z,31.50
2022-08-17T13:59:55.109Z,31.10
2022-08-17T14:02:28.552Z,31.00
2022-08-17T14:05:02.062Z,30.60
2022-08-17T14:07:38.810Z,30.60
2022-08-17T14:10:15.845Z,30.40
2022-08-17T14:12:47.753Z,30.40
2022-08-17T14:15:20.578Z,30.70
2022-08-17T14:17:51.872Z,31.30
2022-08-17T14:20:25.304Z,32.10
2022-08-17T14:22:58.192Z,33.50
2022-08-17T14:25:32.420Z,33.00
2022-08-17T14:33:05.980Z,31.60
2022-08-17T14:40:40.272Z,32.80
2022-08-17T14:43:10.351Z,31.80
2022-08-17T14:45:41.300Z,31.80
2022-08-17T14:50:44.273Z,31.60
2022-08-17T14:53:20.326Z,31.50
2022-08-17T14:55:53.670Z,31.70
2022-08-17T15:10:58.816Z,31.70
2022-08-17T15:13:30.041Z,31.60
2022-08-17T15:16:00.993Z,30.90
2022-08-17T15:18:31.372Z,31.30
2022-08-17T15:21:01.326Z,31.20
2022-08-17T15:26:04.711Z,31.50
2022-08-17T15:28:34.815Z,31.00
2022-08-17T15:31:06.656Z,31.70
2022-08-17T15:33:36.699Z,31.90
2022-08-17T15:36:09.905Z,31.70
2022-08-17T15:38:41.874Z,31.50
2022-08-17T15:41:19.601Z,30.70
2022-08-17T15:43:51.541Z,30.30
2022-08-17T15:46:24.528Z,29.90
2022-08-17T15:48:58.258Z,29.70
2022-08-17T15:51:30.149Z,29.80
2022-08-17T15:54:04.544Z,29.80
2022-08-17T15:56:52.126Z,29.60
2022-08-17T15:59:22.140Z,29.90
2022-08-17T16:09:47.754Z,28.90
2022-08-17T16:12:22.656Z,28.80
2022-08-17T16:14:53.323Z,28.60
2022-08-17T16:17:39.183Z,28.50
2022-08-17T16:20:20.281Z,28.30
2022-08-17T16:22:52.426Z,28.30
2022-08-17T16:25:40.304Z,28.40
2022-08-17T16:28:20.618Z,28.10
2022-08-17T16:30:50.546Z,28.30
2022-08-17T16:33:20.514Z,27.90
2022-08-17T16:35:50.458Z,29.70
2022-08-17T16:43:25.413Z,27.60
2022-08-17T16:56:05.155Z,27.30
2022-08-17T16:58:40.941Z,27.30
2022-08-17T17:01:12.137Z,27.20
2022-08-17T17:03:46.397Z,27.20
2022-08-17T17:06:23.473Z,26.70
2022-08-17T17:08:59.793Z,27.00
2022-08-17T17:11:34.745Z,26.80
2022-08-17T17:14:11.192Z,26.70
2022-08-17T17:16:48.687Z,26.70
2022-08-17T17:19:34.829Z,26.60
2022-08-17T17:22:14.993Z,26.60
2022-08-17T17:24:50.429Z,26.50
2022-08-17T17:27:32.431Z,26.50
2022-08-17T17:30:12.429Z,26.40
2022-08-17T17:32:47.348Z,26.40
2022-08-17T17:35:20.790Z,26.20
2022-08-17T17:37:51.152Z,26.20
2022-08-17T17:40:25.670Z,25.90
2022-08-17T17:43:14.270Z,25.90
2022-08-17T17:45:56.457Z,25.80
2022-08-17T17:51:12.038Z,25.70
2022-08-17T17:53:54.418Z,25.70
2022-08-17T17:56:44.198Z,25.60
2022-08-17T17:59:23.319Z,25.50
2022-08-17T18:02:03.192Z,25.50
2022-08-17T18:04:38.212Z,25.40
2022-08-17T18:07:19.456Z,25.30
2022-08-17T18:10:03.828Z,25.20
2022-08-17T18:12:43.150Z,25.00
2022-08-17T18:15:33.270Z,25.00
2022-08-17T18:18:37.899Z,24.90
2022-08-17T18:21:15.831Z,24.80
2022-08-17T18:23:51.005Z,24.90
2022-08-17T18:26:52.361Z,24.70
2022-08-17T18:29:45.485Z,24.50
2022-08-17T18:32:32.999Z,24.50
2022-08-17T18:35:32.653Z,24.40
2022-08-17T18:38:23.314Z,24.30
2022-08-17T18:41:06.354Z,24.40
2022-08-17T18:43:52.802Z,24.30
2022-08-17T18:46:30.169Z,24.20
2022-08-17T18:49:03.488Z,24.10
2022-08-17T18:51:42.774Z,24.20
2022-08-17T18:54:21.034Z,23.40
2022-08-17T18:56:59.358Z,23.80
2022-08-17T18:59:37.217Z,23.30
2022-08-17T19:02:40.380Z,23.60
2022-08-17T19:05:30.862Z,23.20
2022-08-17T19:08:24.841Z,23.30
2022-08-17T19:10:58.304Z,23.20
2022-08-17T19:13:31.214Z,23.20
2022-08-17T19:16:13.955Z,23.10
2022-08-17T19:18:49.119Z,23.00
2022-08-17T19:21:25.039Z,22.90
2022-08-17T19:24:04.545Z,23.20
2022-08-17T19:26:54.333Z,22.40
2022-08-17T19:29:31.929Z,23.20
2022-08-17T19:34:37.624Z,22.60
2022-08-17T19:37:12.328Z,22.30
2022-08-17T19:39:53.971Z,22.30
2022-08-17T19:42:33.976Z,22.30
2022-08-17T19:45:10.264Z,22.10
2022-08-17T19:47:55.375Z,22.80
2022-08-17T19:50:41.589Z,22.00
2022-08-17T19:53:22.249Z,21.60
2022-08-17T19:56:02.990Z,21.90
2022-08-17T19:58:50.056Z,22.00
2022-08-17T20:01:32.522Z,21.40
2022-08-17T20:04:12.205Z,21.80
2022-08-17T20:06:46.806Z,21.80
2022-08-17T20:12:08.133Z,21.60
2022-08-17T20:20:06.695Z,21.50
2022-08-17T20:28:08.903Z,21.30
2022-08-17T20:38:45.356Z,21.20
2022-08-17T20:41:18.081Z,21.20
2022-08-17T20:52:02.830Z,21.10
2022-08-17T21:00:19.148Z,20.90
2022-08-17T21:05:34.566Z,20.70
2022-08-17T21:10:40.054Z,20.70
2022-08-17T21:19:05.772Z,20.50
2022-08-17T21:21:48.743Z,20.50
2022-08-17T21:24:29.050Z,20.50
2022-08-17T21:27:08.380Z,20.30
2022-08-17T21:42:58.102Z,19.90
2022-08-17T21:48:17.162Z,19.90
2022-08-17T21:56:03.503Z,19.80
2022-08-17T22:06:24.325Z,19.60
2022-08-17T22:19:12.342Z,19.60
2022-08-17T22:27:07.446Z,19.50
2022-08-17T22:32:44.624Z,19.40
2022-08-17T22:35:39.592Z,19.30
2022-08-17T22:40:57.202Z,19.30
2022-08-17T22:43:31.258Z,19.30
2022-08-17T22:51:13.679Z,19.40
2022-08-17T23:09:44.420Z,19.50
2022-08-17T23:19:51.823Z,19.40
